Time;durP1;ratioP1;P1;durP2;ratioP2;P2;SDS_P1;SDS_P2;PMS_P1;PMS_P2;Temp;Humidity;BMP_temperature;BMP_pressure;BME280_temperature;BME280_humidity;BME280_pressure;Samples;Min_cycle;Max_cycle;Signal;HPM_P1;HPM_P2
2023/06/05 00:00:18;;;;;;;5.90;2.70;;;;;;;14.11;54.13;101231.20;105604;1263;64406;-53
2023/06/05 00:02:46;;;;;;;6.40;2.60;;;;;;;14.10;54.09;101234.30;105642;1263;61674;-54
2023/06/05 00:05:13;;;;;;;5.10;2.40;;;;;;;14.06;53.81;101236.23;105656;1263;64045;-54
2023/06/05 00:07:40;;;;;;;8.30;3.00;;;;;;;14.03;53.96;101235.84;104916;1262;59678;-54
2023/06/05 00:10:07;;;;;;;5.40;2.40;;;;;;;13.99;54.40;101233.17;104888;1261;59813;-55
2023/06/05 00:12:34;;;;;;;9.60;3.40;;;;;;;13.94;55.14;101234.91;105264;1262;64743;-55
2023/06/05 00:15:05;;;;;;;8.10;2.90;;;;;;;13.90;55.51;101232.28;105032;1257;60669;-53
2023/06/05 00:17:32;;;;;;;6.20;2.80;;;;;;;13.88;55.89;101230.61;104953;1258;62773;-55
2023/06/05 00:19:59;;;;;;;8.30;2.20;;;;;;;13.90;56.33;101228.36;104867;1257;59695;-55
2023/06/05 00:22:36;;;;;;;5.00;2.30;;;;;;;13.93;56.51;101226.86;105142;1263;59660;-55
2023/06/05 00:25:03;;;;;;;4.80;2.20;;;;;;;13.96;56.61;101230.05;105941;1262;64806;-55
2023/06/05 00:27:31;;;;;;;6.00;2.50;;;;;;;13.97;56.71;101232.62;107690;1257;60471;-55
2023/06/05 00:29:57;;;;;;;7.40;3.00;;;;;;;13.97;56.74;101232.09;106191;1263;59782;-54
2023/06/05 00:32:24;;;;;;;5.20;2.40;;;;;;;13.95;56.76;101228.48;105458;1262;59732;-54
2023/06/05 00:34:51;;;;;;;6.90;3.10;;;;;;;13.93;56.74;101225.64;105502;1258;59378;-54
2023/06/05 00:37:19;;;;;;;6.20;3.00;;;;;;;13.89;56.70;101227.69;105672;1262;64310;-56
2023/06/05 00:39:46;;;;;;;5.90;2.50;;;;;;;13.85;56.79;101228.23;105655;1260;61377;-53
2023/06/05 00:42:13;;;;;;;6.30;2.20;;;;;;;13.82;56.82;101228.50;104953;1260;64084;-54
2023/06/05 00:44:40;;;;;;;9.00;3.00;;;;;;;13.76;56.67;101226.84;105806;1261;58482;-54
2023/06/05 00:47:07;;;;;;;5.10;2.50;;;;;;;13.70;56.79;101228.06;108757;1260;57386;-53
2023/06/05 00:49:34;;;;;;;7.30;2.80;;;;;;;13.66;57.05;101225.57;105894;1258;63070;-54
2023/06/05 00:52:01;;;;;;;4.30;2.30;;;;;;;13.67;57.14;101222.29;104895;1261;61346;-55
2023/06/05 00:54:29;;;;;;;7.80;2.60;;;;;;;13.68;57.10;101220.42;105329;1257;63829;-55
2023/06/05 00:56:56;;;;;;;5.50;2.30;;;;;;;13.67;57.21;101224.55;106141;1261;59714;-55
2023/06/05 00:59:23;;;;;;;7.70;2.60;;;;;;;13.63;57.45;101220.67;105497;1263;59679;-55
2023/06/05 01:01:54;;;;;;;5.20;2.10;;;;;;;13.61;57.75;101221.75;104669;1261;64302;-56
2023/06/05 01:04:23;;;;;;;6.80;2.70;;;;;;;13.58;58.14;101223.72;104921;1264;60120;-55
2023/06/05 01:06:51;;;;;;;5.20;2.50;;;;;;;13.51;58.19;101223.20;106374;1263;63740;-55
2023/06/05 01:09:18;;;;;;;6.20;2.60;;;;;;;13.43;58.12;101223.81;104811;1263;60568;-55
2023/06/05 01:11:45;;;;;;;4.90;2.20;;;;;;;13.36;57.85;101224.16;104676;1259;60661;-53
2023/06/05 01:14:16;;;;;;;6.30;2.40;;;;;;;13.31;57.71;101223.84;104882;1262;65276;-55
2023/06/05 01:16:45;;;;;;;5.80;2.50;;;;;;;13.24;57.61;101228.94;104909;1257;72632;-55
2023/06/05 01:19:14;;;;;;;4.50;2.30;;;;;;;13.19;57.66;101227.23;105035;1257;64560;-53
2023/06/05 01:21:43;;;;;;;8.50;2.80;;;;;;;13.16;57.41;101227.48;104931;1257;60520;-56
2023/06/05 01:24:13;;;;;;;7.60;2.90;;;;;;;13.18;57.49;101227.45;106685;1257;60329;-56
2023/06/05 01:26:52;;;;;;;6.80;3.00;;;;;;;13.22;57.98;101228.74;104731;1262;65277;-55
2023/06/05 01:29:23;;;;;;;7.20;2.90;;;;;;;13.23;58.40;101225.71;104872;1264;70301;-55
2023/06/05 01:31:51;;;;;;;6.20;2.90;;;;;;;13.22;58.62;101228.63;105541;1263;63954;-55
2023/06/05 01:34:19;;;;;;;7.80;3.40;;;;;;;13.18;58.88;101227.95;105642;1257;64127;-55
2023/06/05 01:36:46;;;;;;;7.70;2.90;;;;;;;13.17;59.13;101224.39;105579;1258;60421;-55
2023/06/05 01:39:14;;;;;;;6.20;2.70;;;;;;;13.16;59.21;101222.90;106424;1261;65253;-54
2023/06/05 01:41:41;;;;;;;5.70;2.80;;;;;;;13.15;59.13;101224.70;105845;1258;61337;-54
2023/06/05 01:44:08;;;;;;;6.40;2.80;;;;;;;13.18;58.97;101223.63;105746;1262;64287;-54
2023/06/05 01:46:35;;;;;;;6.80;3.10;;;;;;;13.23;58.85;101224.64;104844;1264;60453;-55
2023/06/05 01:49:02;;;;;;;5.30;2.90;;;;;;;13.25;58.94;101223.59;105212;1258;60453;-53
2023/06/05 01:51:29;;;;;;;7.80;2.50;;;;;;;13.25;59.12;101222.73;104711;1264;65065;-55
2023/06/05 01:53:57;;;;;;;5.10;2.70;;;;;;;13.25;59.33;101221.16;105352;1260;61743;-56
2023/06/05 01:56:24;;;;;;;5.20;2.20;;;;;;;13.23;59.48;101218.66;106238;1258;63796;-54
2023/06/05 01:58:53;;;;;;;7.20;2.80;;;;;;;13.21;59.45;101220.41;106341;1258;60607;-55
2023/06/05 02:01:22;;;;;;;6.50;3.00;;;;;;;13.18;59.55;101225.70;106323;1260;60568;-56
2023/06/05 02:03:49;;;;;;;5.50;3.00;;;;;;;13.16;59.61;101224.11;106353;1262;65425;-55
2023/06/05 02:06:17;;;;;;;5.10;2.30;;;;;;;13.16;59.84;101222.14;105711;1257;61459;-55
2023/06/05 02:08:43;;;;;;;5.60;2.70;;;;;;;13.20;59.98;101224.11;104828;1257;62666;-54
2023/06/05 02:11:11;;;;;;;5.80;2.90;;;;;;;13.26;60.16;101223.39;105029;1262;59247;-54
2023/06/05 02:13:39;;;;;;;7.10;2.90;;;;;;;13.29;60.17;101225.55;105156;1257;60734;-54
2023/06/05 02:16:10;;;;;;;6.70;2.70;;;;;;;13.31;60.24;101230.38;104681;1267;65270;-54
2023/06/05 02:18:37;;;;;;;4.60;2.50;;;;;;;13.29;60.24;101232.64;104637;1263;62096;-54
2023/06/05 02:21:04;;;;;;;6.10;2.80;;;;;;;13.25;60.25;101229.40;108754;1257;63847;-55
2023/06/05 02:23:31;;;;;;;5.20;2.80;;;;;;;13.21;60.26;101231.83;108433;1257;59262;-55
2023/06/05 02:25:59;;;;;;;6.20;2.80;;;;;;;13.16;60.41;101233.46;106824;1262;59208;-53
2023/06/05 02:28:26;;;;;;;5.40;2.30;;;;;;;13.16;60.53;101233.80;104743;1262;65418;-54
2023/06/05 02:30:54;;;;;;;5.30;3.00;;;;;;;13.19;60.44;101233.39;108750;1257;61471;-54
2023/06/05 02:33:23;;;;;;;6.20;3.00;;;;;;;13.21;60.44;101233.95;106246;1258;62933;-55
2023/06/05 02:35:49;;;;;;;5.60;2.80;;;;;;;13.19;60.52;101237.41;104618;1258;60549;-55
2023/06/05 02:38:16;;;;;;;8.60;3.20;;;;;;;13.17;60.68;101237.61;106321;1257;60456;-53
2023/06/05 02:40:43;;;;;;;6.30;2.70;;;;;;;13.16;60.85;101236.45;106399;1261;65229;-53
2023/06/05 02:43:11;;;;;;;5.80;2.50;;;;;;;13.15;60.97;101240.00;104720;1260;62166;-53
2023/06/05 02:45:39;;;;;;;5.90;2.90;;;;;;;13.15;61.00;101236.14;104754;1257;62675;-53
2023/06/05 02:48:05;;;;;;;5.30;2.90;;;;;;;13.18;61.04;101229.21;104647;1258;60517;-57
2023/06/05 02:50:34;;;;;;;6.30;2.90;;;;;;;13.24;60.91;101230.77;104608;1258;60776;-57
2023/06/05 02:53:02;;;;;;;7.10;3.60;;;;;;;13.27;60.95;101232.99;108436;1257;65303;-53
2023/06/05 02:55:32;;;;;;;6.80;3.00;;;;;;;13.31;61.09;101233.23;104730;1258;61585;-54
2023/06/05 02:58:02;;;;;;;5.30;2.80;;;;;;;13.34;60.98;101235.26;105903;1257;63901;-54
2023/06/05 03:00:37;;;;;;;5.70;2.90;;;;;;;13.35;61.01;101234.09;104496;1258;60469;-55
2023/06/05 03:03:06;;;;;;;6.00;2.80;;;;;;;13.37;61.01;101231.49;104758;1263;60463;-57
2023/06/05 03:05:35;;;;;;;8.00;3.00;;;;;;;13.40;61.00;101230.44;108685;1257;65309;-54
2023/06/05 03:08:08;;;;;;;6.60;2.90;;;;;;;13.47;60.94;101230.95;108685;1257;61553;-55
2023/06/05 03:10:35;;;;;;;5.10;2.50;;;;;;;13.56;60.91;101230.58;108680;1258;63024;-54
2023/06/05 03:13:03;;;;;;;6.40;2.80;;;;;;;13.66;60.93;101230.11;108751;1258;58541;-55
2023/06/05 03:15:32;;;;;;;6.90;2.80;;;;;;;13.73;60.78;101229.17;108781;1257;58452;-55
2023/06/05 03:17:58;;;;;;;7.60;2.50;;;;;;;13.80;60.69;101225.49;105993;1263;65025;-55
2023/06/05 03:20:26;;;;;;;9.70;2.80;;;;;;;13.84;60.51;101230.29;105259;1258;61923;-55
2023/06/05 03:22:52;;;;;;;9.50;3.50;;;;;;;13.86;60.43;101229.79;104816;1258;63812;-55
2023/06/05 03:25:19;;;;;;;6.40;3.20;;;;;;;13.86;60.57;101231.87;107177;1257;60325;-56
2023/06/05 03:27:49;;;;;;;9.20;3.20;;;;;;;13.87;60.64;101230.58;104833;1257;60457;-55
2023/06/05 03:30:18;;;;;;;6.00;3.00;;;;;;;13.86;60.56;101228.65;107387;1257;65002;-55
2023/06/05 03:32:48;;;;;;;4.80;2.40;;;;;;;13.90;60.32;101228.20;106371;1260;61539;-54
2023/06/05 03:35:17;;;;;;;5.10;2.80;;;;;;;13.96;60.00;101226.84;105796;1258;63844;-55
2023/06/05 03:37:44;;;;;;;6.50;2.80;;;;;;;13.98;59.67;101231.06;105666;1258;60448;-54
2023/06/05 03:40:12;;;;;;;13.00;2.90;;;;;;;13.99;59.38;101232.43;104924;1257;61163;-57
2023/06/05 03:42:40;;;;;;;5.60;2.50;;;;;;;14.00;59.18;101232.00;104896;1260;65697;-54
2023/06/05 03:45:08;;;;;;;5.80;2.60;;;;;;;14.01;58.89;101228.60;105061;1261;61529;-54
2023/06/05 03:47:37;;;;;;;6.40;2.30;;;;;;;14.01;58.56;101228.95;104984;1257;64362;-55
2023/06/05 03:50:06;;;;;;;5.30;2.80;;;;;;;14.00;58.34;101227.95;105262;1257;60473;-54
2023/06/05 03:52:39;;;;;;;6.90;2.50;;;;;;;14.02;58.32;101228.85;106584;1260;60444;-55
2023/06/05 03:55:10;;;;;;;4.80;2.60;;;;;;;14.04;58.33;101230.79;105083;1262;65087;-53
2023/06/05 03:57:38;;;;;;;4.80;2.30;;;;;;;14.13;58.45;101234.42;104915;1260;61688;-54
2023/06/05 04:00:09;;;;;;;6.30;2.40;;;;;;;14.27;58.68;101231.05;105950;1262;64394;-54
2023/06/05 04:02:39;;;;;;;7.50;2.70;;;;;;;14.42;58.93;101228.07;104954;1257;60562;-56
2023/06/05 04:05:11;;;;;;;6.00;2.40;;;;;;;14.53;58.99;101228.19;105086;1263;60563;-55
2023/06/05 04:07:39;;;;;;;6.20;2.80;;;;;;;14.61;59.19;101228.02;105186;1262;65097;-55
2023/06/05 04:10:07;;;;;;;5.90;2.80;;;;;;;14.70;59.37;101225.07;106040;1257;63130;-55
2023/06/05 04:12:34;;;;;;;7.30;3.00;;;;;;;14.78;59.56;101222.96;107605;1258;62999;-55
2023/06/05 04:15:02;;;;;;;5.20;2.30;;;;;;;14.87;59.64;101221.63;105087;1257;60510;-54
2023/06/05 04:17:29;;;;;;;5.10;2.50;;;;;;;14.95;59.55;101226.27;105285;1261;60546;-54
2023/06/05 04:19:56;;;;;;;6.80;2.40;;;;;;;15.07;59.20;101225.60;104864;1257;63642;-55
2023/06/05 04:22:24;;;;;;;5.30;2.40;;;;;;;15.20;58.16;101221.09;105478;1260;61374;-54
2023/06/05 04:24:51;;;;;;;4.40;1.90;;;;;;;15.31;56.90;101220.52;105572;1257;63798;-54
2023/06/05 04:27:17;;;;;;;4.80;2.00;;;;;;;15.40;55.75;101220.26;104917;1258;60603;-54
2023/06/05 04:29:44;;;;;;;5.00;2.20;;;;;;;15.48;54.84;101225.61;105771;1257;60595;-55
2023/06/05 04:32:13;;;;;;;6.90;2.60;;;;;;;15.54;54.56;101228.63;105073;1262;64969;-56
2023/06/05 04:34:40;;;;;;;7.30;2.30;;;;;;;15.61;53.85;101230.82;105982;1258;62050;-55
2023/06/05 04:37:07;;;;;;;6.10;2.50;;;;;;;15.68;53.49;101229.55;105135;1260;63819;-53
2023/06/05 04:39:34;;;;;;;4.20;1.50;;;;;;;15.75;53.29;101232.80;104853;1263;61662;-54
2023/06/05 04:42:00;;;;;;;5.80;1.70;;;;;;;15.80;52.16;101233.25;104973;1260;60498;-56
2023/06/05 04:44:42;;;;;;;4.10;1.60;;;;;;;15.86;51.01;101233.98;104958;1263;74259;-55
2023/06/05 04:47:10;;;;;;;4.00;1.50;;;;;;;15.91;50.27;101238.67;104937;1258;61643;-56
2023/06/05 04:49:38;;;;;;;4.90;1.50;;;;;;;15.97;49.08;101239.54;105283;1257;63315;-55
2023/06/05 04:52:06;;;;;;;4.60;1.50;;;;;;;16.03;48.56;101239.88;106212;1258;60546;-57
2023/06/05 04:54:33;;;;;;;3.60;1.40;;;;;;;16.10;48.04;101237.30;105243;1263;60505;-55
2023/06/05 04:57:01;;;;;;;5.70;1.20;;;;;;;16.18;46.76;101239.12;105063;1262;65671;-55
2023/06/05 04:59:28;;;;;;;3.50;1.20;;;;;;;16.25;45.47;101236.13;105355;1257;61657;-57
2023/06/05 05:01:55;;;;;;;4.40;1.30;;;;;;;16.33;44.65;101231.88;104738;1262;64109;-57
2023/06/05 05:04:22;;;;;;;4.80;1.10;;;;;;;16.42;44.46;101233.92;104619;1258;60444;-54
2023/06/05 05:06:51;;;;;;;3.30;1.20;;;;;;;16.52;44.66;101234.63;105417;1257;60444;-55
2023/06/05 05:09:18;;;;;;;4.00;1.20;;;;;;;16.60;44.04;101232.07;106418;1262;65731;-56
2023/06/05 05:11:46;;;;;;;3.90;1.10;;;;;;;16.70;43.74;101232.56;106562;1257;61385;-56
2023/06/05 05:14:13;;;;;;;5.90;1.30;;;;;;;16.81;43.38;101233.56;104830;1262;63932;-55
2023/06/05 05:16:42;;;;;;;3.90;1.20;;;;;;;16.92;43.04;101230.27;108150;1260;60565;-54
2023/06/05 05:19:10;;;;;;;3.80;1.10;;;;;;;17.04;42.99;101232.07;108725;1257;58528;-56
2023/06/05 05:21:37;;;;;;;3.40;1.30;;;;;;;17.18;43.13;101233.30;108706;1257;65593;-56
2023/06/05 05:24:05;;;;;;;4.70;1.30;;;;;;;17.31;42.62;101235.30;108765;1257;62039;-57
2023/06/05 05:26:32;;;;;;;2.90;1.00;;;;;;;17.44;41.93;101238.83;105286;1257;64009;-56
2023/06/05 05:28:58;;;;;;;3.90;0.90;;;;;;;17.57;40.50;101234.67;105075;1256;60458;-59
2023/06/05 05:31:25;;;;;;;4.40;1.30;;;;;;;17.73;40.42;101234.29;108561;1258;58330;-56
2023/06/05 05:33:54;;;;;;;2.70;0.70;;;;;;;17.87;40.49;101234.98;106931;1260;65233;-55
2023/06/05 05:36:22;;;;;;;2.60;0.90;;;;;;;18.01;40.17;101235.77;104770;1257;62823;-55
2023/06/05 05:38:49;;;;;;;3.50;1.00;;;;;;;18.15;39.52;101237.84;104627;1260;63871;-57
2023/06/05 05:41:16;;;;;;;3.10;0.90;;;;;;;18.28;39.01;101234.78;106331;1257;60476;-55
2023/06/05 05:43:43;;;;;;;2.20;0.70;;;;;;;18.42;38.28;101239.83;104707;1257;60453;-52
2023/06/05 05:46:10;;;;;;;3.10;0.90;;;;;;;18.54;37.81;101240.20;104721;1260;65006;-52
2023/06/05 05:48:37;;;;;;;2.40;0.70;;;;;;;18.66;37.77;101236.15;104746;1262;60349;-52
2023/06/05 05:51:05;;;;;;;4.10;0.70;;;;;;;18.77;37.45;101233.77;104899;1260;65214;-53
2023/06/05 05:53:32;;;;;;;7.50;0.80;;;;;;;18.90;36.52;101232.48;108680;1260;58287;-50
2023/06/05 05:55:59;;;;;;;4.60;1.00;;;;;;;19.02;35.65;101232.88;106837;1257;60459;-53
2023/06/05 05:58:26;;;;;;;1.80;0.60;;;;;;;19.12;35.61;101230.63;104749;1262;65065;-56
2023/06/05 06:00:53;;;;;;;2.70;0.60;;;;;;;19.22;35.04;101231.55;107030;1258;61943;-55
2023/06/05 06:03:20;;;;;;;2.20;0.70;;;;;;;19.33;35.23;101231.27;107221;1257;63795;-57
2023/06/05 06:05:47;;;;;;;3.00;0.80;;;;;;;19.46;34.72;101230.69;105563;1258;60416;-55
2023/06/05 06:08:15;;;;;;;3.10;0.90;;;;;;;19.60;33.14;101226.56;108817;1257;60083;-59
2023/06/05 06:10:41;;;;;;;3.10;1.00;;;;;;;19.74;33.40;101227.88;108873;1257;64884;-58
2023/06/05 06:13:08;;;;;;;2.50;0.70;;;;;;;19.87;33.22;101225.98;107549;1258;61714;-59
2023/06/05 06:15:37;;;;;;;2.20;0.70;;;;;;;20.00;33.01;101224.48;104908;1260;64014;-61
2023/06/05 06:18:03;;;;;;;2.40;0.70;;;;;;;20.12;33.15;101226.70;104547;1258;60453;-56
2023/06/05 06:20:33;;;;;;;2.80;0.70;;;;;;;20.24;32.83;101225.44;104996;1257;61049;-60
2023/06/05 06:23:00;;;;;;;1.90;0.70;;;;;;;20.33;32.10;101224.88;104841;1260;63752;-59
2023/06/05 06:25:28;;;;;;;2.00;0.50;;;;;;;20.40;31.52;101219.24;106838;1260;61373;-58
2023/06/05 06:27:56;;;;;;;2.60;0.60;;;;;;;20.49;31.39;101224.04;104907;1257;64081;-57
2023/06/05 06:30:23;;;;;;;2.70;0.70;;;;;;;20.57;31.66;101221.14;104428;1258;59170;-57
2023/06/05 06:32:49;;;;;;;3.80;1.00;;;;;;;20.65;30.92;101219.18;104341;1261;60575;-57
2023/06/05 06:35:16;;;;;;;1.60;0.50;;;;;;;20.73;30.89;101218.21;104429;1262;65138;-59
2023/06/05 06:37:44;;;;;;;2.70;0.80;;;;;;;20.79;31.57;101220.02;105445;1258;60629;-59
2023/06/05 06:40:11;;;;;;;2.40;0.60;;;;;;;20.86;31.79;101222.47;107994;1257;73009;-57
2023/06/05 06:42:38;;;;;;;2.30;0.70;;;;;;;20.93;31.10;101221.33;106369;1262;60456;-59
2023/06/05 06:45:17;;;;;;;2.40;0.60;;;;;;;21.04;30.45;101223.34;106343;1261;60378;-58
2023/06/05 06:47:45;;;;;;;2.70;0.60;;;;;;;21.12;30.73;101225.25;104623;1262;65085;-59
2023/06/05 06:50:32;;;;;;;2.20;0.70;;;;;;;21.19;29.88;101226.80;104528;1262;60923;-57
2023/06/05 06:52:58;;;;;;;3.40;0.90;;;;;;;21.25;29.76;101229.06;104657;1257;64016;-58
2023/06/05 06:55:25;;;;;;;2.30;0.60;;;;;;;21.28;29.39;101225.59;104780;1258;60568;-57
2023/06/05 06:57:52;;;;;;;2.40;0.70;;;;;;;21.32;29.56;101227.09;108727;1258;58366;-58
2023/06/05 07:00:20;;;;;;;2.90;0.60;;;;;;;21.38;29.65;101229.75;108881;1257;64392;-58
2023/06/05 07:02:47;;;;;;;2.00;0.60;;;;;;;21.44;29.32;101230.10;108913;1258;61815;-58
2023/06/05 07:05:14;;;;;;;2.90;0.80;;;;;;;21.51;28.51;101228.13;105139;1264;62633;-59
2023/06/05 07:07:41;;;;;;;1.80;0.70;;;;;;;21.55;28.77;101227.45;105205;1258;60478;-58
2023/06/05 07:10:09;;;;;;;1.80;0.50;;;;;;;21.60;29.32;101226.73;105169;1258;60495;-57
2023/06/05 07:12:35;;;;;;;3.50;1.10;;;;;;;21.63;29.51;101225.09;105383;1258;65078;-58
2023/06/05 07:15:03;;;;;;;3.30;0.80;;;;;;;21.63;29.79;101224.17;105111;1261;60737;-58
2023/06/05 07:17:30;;;;;;;4.10;0.80;;;;;;;21.64;30.51;101225.42;105501;1260;64580;-58
2023/06/05 07:19:57;;;;;;;2.60;0.80;;;;;;;21.66;29.85;101225.99;105182;1258;60485;-58
2023/06/05 07:22:26;;;;;;;3.20;0.90;;;;;;;21.67;29.98;101224.46;105541;1257;60558;-58
2023/06/05 07:24:53;;;;;;;4.40;0.60;;;;;;;21.69;29.73;101222.52;106535;1262;65258;-58
2023/06/05 07:27:20;;;;;;;2.30;0.70;;;;;;;21.71;29.89;101222.64;106495;1257;61582;-59
2023/06/05 07:29:47;;;;;;;3.50;0.80;;;;;;;21.74;28.71;101220.11;105761;1257;63864;-59
2023/06/05 07:32:17;;;;;;;4.10;0.90;;;;;;;21.78;28.61;101219.72;105854;1259;60568;-58
2023/06/05 07:34:45;;;;;;;2.80;1.00;;;;;;;21.82;29.21;101219.92;105879;1257;60476;-59
2023/06/05 07:37:12;;;;;;;2.30;0.50;;;;;;;21.89;28.94;101220.26;105174;1261;65231;-59
2023/06/05 07:39:38;;;;;;;1.50;0.50;;;;;;;21.97;29.10;101216.27;105074;1260;70876;-59
2023/06/05 07:42:06;;;;;;;2.40;0.80;;;;;;;22.04;28.85;101213.85;105056;1262;64209;-59
2023/06/05 07:44:33;;;;;;;3.00;0.80;;;;;;;22.07;28.40;101212.89;105375;1257;60478;-59
2023/06/05 07:47:00;;;;;;;4.20;0.80;;;;;;;22.11;28.48;101212.90;105423;1257;60444;-58
2023/06/05 07:49:30;;;;;;;2.80;0.90;;;;;;;22.14;28.20;101212.22;105116;1262;65221;-59
2023/06/05 07:51:57;;;;;;;2.90;0.70;;;;;;;22.17;27.79;101217.36;105541;1257;71561;-59
2023/06/05 07:54:24;;;;;;;3.10;0.80;;;;;;;22.20;28.57;101216.63;105666;1258;64077;-58
2023/06/05 07:56:50;;;;;;;1.70;0.60;;;;;;;22.25;28.29;101214.45;105094;1263;60677;-59
2023/06/05 07:59:22;;;;;;;2.10;0.60;;;;;;;22.29;27.83;101220.41;105163;1257;59963;-61
2023/06/05 08:01:49;;;;;;;2.20;0.80;;;;;;;22.38;28.50;101221.91;105698;1261;65049;-59
2023/06/05 08:04:15;;;;;;;3.70;1.20;;;;;;;22.50;28.16;101223.17;105825;1261;61772;-61
2023/06/05 08:06:45;;;;;;;4.40;1.10;;;;;;;22.62;28.51;101220.34;105811;1257;64042;-59
2023/06/05 08:09:12;;;;;;;3.50;0.80;;;;;;;22.76;28.29;101219.19;105153;1257;60572;-59
2023/06/05 08:11:41;;;;;;;3.00;0.90;;;;;;;22.90;27.58;101218.98;105173;1257;60462;-59
2023/06/05 08:14:08;;;;;;;2.50;0.70;;;;;;;23.03;26.98;101221.23;105177;1261;65119;-59
2023/06/05 08:16:36;;;;;;;3.20;1.00;;;;;;;23.14;26.57;101219.83;105056;1259;61570;-59
2023/06/05 08:19:03;;;;;;;3.80;0.80;;;;;;;23.25;26.20;101219.88;104823;1257;63741;-58
2023/06/05 08:21:30;;;;;;;3.00;0.70;;;;;;;23.31;25.82;101219.58;105216;1257;60562;-58
2023/06/05 08:23:56;;;;;;;2.30;0.70;;;;;;;23.36;25.59;101221.30;105004;1258;60410;-59
2023/06/05 08:26:23;;;;;;;3.20;1.00;;;;;;;23.39;25.26;101222.98;106352;1257;63922;-60
2023/06/05 08:28:50;;;;;;;3.00;1.10;;;;;;;23.36;25.14;101220.94;105430;1258;61603;-58
2023/06/05 08:31:17;;;;;;;2.80;0.80;;;;;;;23.33;25.23;101220.27;104938;1258;63928;-58
2023/06/05 08:33:44;;;;;;;1.80;0.60;;;;;;;23.28;24.95;101220.04;104710;1258;60600;-60
2023/06/05 08:36:10;;;;;;;3.40;1.00;;;;;;;23.23;25.11;101222.95;105803;1257;60361;-59
2023/06/05 08:38:37;;;;;;;5.00;0.90;;;;;;;23.23;25.56;101225.63;104792;1260;64915;-60
2023/06/05 08:41:10;;;;;;;2.40;0.80;;;;;;;23.26;25.67;101227.91;105108;1262;61987;-59
2023/06/05 08:43:38;;;;;;;3.30;0.70;;;;;;;23.27;25.63;101227.80;105343;1260;64117;-59
2023/06/05 08:46:06;;;;;;;1.90;0.70;;;;;;;23.29;26.24;101226.90;105261;1257;60539;-59
2023/06/05 08:48:37;;;;;;;2.30;0.70;;;;;;;23.32;26.38;101224.75;104996;1257;61318;-59
2023/06/05 08:51:05;;;;;;;2.70;0.70;;;;;;;23.36;26.27;101221.84;105128;1258;65097;-58
2023/06/05 08:53:34;;;;;;;1.80;0.60;;;;;;;23.44;26.35;101218.56;105274;1262;61762;-58
2023/06/05 08:56:01;;;;;;;3.50;1.00;;;;;;;23.55;26.31;101215.42;106219;1258;64064;-60
2023/06/05 08:58:28;;;;;;;3.10;1.00;;;;;;;23.67;26.08;101209.36;105391;1257;60459;-61
2023/06/05 09:00:54;;;;;;;3.00;0.80;;;;;;;23.76;25.57;101205.90;105067;1260;60515;-61
2023/06/05 09:03:21;;;;;;;2.60;0.90;;;;;;;23.86;26.46;101198.23;106381;1258;277103;-61
2023/06/05 09:08:07;;;;;;;5.50;1.00;;;;;;;23.93;26.78;101198.02;102537;1292;600961;-64
2023/06/05 09:10:34;;;;;;;2.50;0.80;;;;;;;24.16;26.24;101201.38;104791;1267;59351;-60
2023/06/05 09:13:03;;;;;;;2.90;0.90;;;;;;;24.15;25.83;101203.94;104570;1269;59200;-61
2023/06/05 09:15:34;;;;;;;3.00;0.70;;;;;;;24.10;25.64;101202.44;104721;1277;63339;-61
2023/06/05 09:18:15;;;;;;;2.70;0.80;;;;;;;24.02;25.19;101198.39;105071;1269;61427;-61
2023/06/05 09:20:45;;;;;;;5.70;1.00;;;;;;;23.93;24.92;101197.15;104520;1271;241869;-59
2023/06/05 09:23:24;;;;;;;3.10;1.20;;;;;;;23.89;25.19;101191.70;107194;1266;59584;-60
2023/06/05 09:25:58;;;;;;;2.40;0.90;;;;;;;23.92;25.28;101186.42;106133;1263;59346;-61
2023/06/05 09:28:26;;;;;;;4.10;1.00;;;;;;;23.94;25.53;101186.49;104808;1267;63352;-62
2023/06/05 09:31:01;;;;;;;3.00;1.10;;;;;;;23.95;24.53;101190.14;104828;1261;61405;-62
2023/06/05 09:33:35;;;;;;;3.50;1.00;;;;;;;23.94;24.45;101189.98;105126;1267;64180;-62
2023/06/05 09:36:04;;;;;;;2.40;0.80;;;;;;;23.96;24.69;101189.86;105266;1254;59645;-61
2023/06/05 09:38:32;;;;;;;2.90;1.00;;;;;;;23.98;24.51;101185.45;105511;1253;59561;-62
2023/06/05 09:41:14;;;;;;;6.90;1.00;;;;;;;24.05;24.57;101185.64;105165;1254;64127;-62
2023/06/05 09:43:41;;;;;;;2.50;0.90;;;;;;;24.06;24.37;101184.23;105269;1254;61937;-62
2023/06/05 09:46:10;;;;;;;2.70;0.90;;;;;;;24.09;24.25;101184.10;105311;1258;63706;-60
2023/06/05 09:48:39;;;;;;;2.70;0.90;;;;;;;24.14;24.45;101183.83;105520;1254;59761;-61
2023/06/05 09:51:14;;;;;;;4.00;1.00;;;;;;;24.21;24.78;101181.29;105621;1254;59670;-61
2023/06/05 09:53:43;;;;;;;3.40;1.10;;;;;;;24.30;23.61;101178.41;105424;1260;64125;-61
2023/06/05 09:56:21;;;;;;;5.50;1.00;;;;;;;24.37;23.17;101169.84;105376;1259;60139;-61
2023/06/05 09:58:52;;;;;;;6.20;0.90;;;;;;;24.45;23.05;101173.08;105862;1257;63768;-61
2023/06/05 10:01:22;;;;;;;3.50;1.00;;;;;;;24.46;22.75;101174.73;104993;1258;59762;-60
2023/06/05 10:03:56;;;;;;;3.30;1.10;;;;;;;24.45;22.67;101173.52;106556;1254;59669;-61
2023/06/05 10:06:28;;;;;;;6.60;1.10;;;;;;;24.44;23.05;101175.01;105996;1258;64365;-62
2023/06/05 10:08:56;;;;;;;4.20;0.90;;;;;;;24.39;23.34;101174.18;105735;1259;60156;-62
2023/06/05 10:11:27;;;;;;;3.40;0.90;;;;;;;24.43;23.00;101172.31;108227;1260;63830;-61
2023/06/05 10:13:58;;;;;;;2.80;1.00;;;;;;;24.49;23.30;101173.14;105356;1261;59964;-61
2023/06/05 10:16:30;;;;;;;2.70;0.90;;;;;;;24.57;24.00;101168.51;107401;1253;59221;-60
2023/06/05 10:18:59;;;;;;;3.00;1.30;;;;;;;24.62;23.88;101167.77;107394;1257;64048;-60
2023/06/05 10:21:27;;;;;;;2.10;0.80;;;;;;;24.61;23.99;101165.40;105897;1259;61526;-61
2023/06/05 10:23:57;;;;;;;2.40;0.90;;;;;;;24.57;23.99;101165.54;108934;1257;63196;-61
2023/06/05 10:26:53;;;;;;;2.40;0.90;;;;;;;24.55;24.71;101166.83;106611;1261;59710;-61
2023/06/05 10:29:43;;;;;;;3.60;1.00;;;;;;;24.52;24.55;101167.76;105953;1254;59285;-61
2023/06/05 10:32:19;;;;;;;2.50;0.70;;;;;;;24.51;24.59;101167.48;105334;1254;64113;-62
2023/06/05 10:34:47;;;;;;;3.90;1.20;;;;;;;24.56;25.11;101165.14;105375;1258;61535;-61
2023/06/05 10:37:50;;;;;;;3.10;1.10;;;;;;;24.68;25.21;101163.91;105919;1254;63691;-62
2023/06/05 10:40:17;;;;;;;2.60;0.90;;;;;;;24.82;24.63;101156.21;105249;1254;59771;-62
2023/06/05 10:42:45;;;;;;;3.10;1.00;;;;;;;24.95;24.45;101148.41;105140;1260;59730;-62
2023/06/05 10:45:12;;;;;;;3.40;0.90;;;;;;;25.10;24.48;101149.56;105030;1260;64287;-62
2023/06/05 10:47:50;;;;;;;3.70;1.10;;;;;;;25.24;24.71;101149.14;105153;1260;61567;-61
2023/06/05 10:50:22;;;;;;;4.60;1.00;;;;;;;25.39;23.88;101144.91;106541;1257;63731;-63
2023/06/05 10:52:49;;;;;;;4.10;1.30;;;;;;;25.49;23.46;101142.55;105803;1254;60927;-64
2023/06/05 10:55:17;;;;;;;5.50;1.10;;;;;;;25.47;23.20;101143.23;105307;1254;59700;-62
2023/06/05 10:58:04;;;;;;;3.90;1.10;;;;;;;25.43;23.77;101136.91;105290;1254;62830;-63
2023/06/05 11:00:32;;;;;;;3.50;1.10;;;;;;;25.49;24.33;101134.81;105364;1260;60092;-62
2023/06/05 11:03:00;;;;;;;3.10;0.90;;;;;;;25.60;24.95;101132.11;105808;1260;63193;-61
2023/06/05 11:05:29;;;;;;;3.70;0.90;;;;;;;25.68;24.14;101128.09;105330;1260;59620;-62
2023/06/05 11:08:13;;;;;;;5.50;1.00;;;;;;;25.70;23.37;101125.65;105904;1257;59676;-62
2023/06/05 11:11:04;;;;;;;3.90;1.30;;;;;;;25.69;23.10;101125.56;105471;1254;64108;-62
2023/06/05 11:14:00;;;;;;;3.50;0.90;;;;;;;25.69;23.56;101123.21;107227;1254;61430;-62
2023/06/05 11:16:32;;;;;;;4.20;0.90;;;;;;;25.73;23.53;101121.75;105328;1254;64394;-62
2023/06/05 11:19:22;;;;;;;3.20;1.00;;;;;;;25.75;23.72;101120.69;105764;1261;59739;-62
2023/06/05 11:22:07;;;;;;;2.90;1.10;;;;;;;25.74;23.30;101117.77;107615;1254;59565;-61
2023/06/05 11:24:36;;;;;;;5.00;1.30;;;;;;;25.71;22.69;101117.89;105389;1254;73824;-62
2023/06/05 11:27:05;;;;;;;3.00;0.90;;;;;;;25.67;22.23;101114.48;106443;1258;61354;-63